Time;durP1;ratioP1;P1;durP2;ratioP2;P2;SDS_P1;SDS_P2;PMS_P1;PMS_P2;Temp;Humidity;BMP_temperature;BMP_pressure;BME280_temperature;BME280_humidity;BME280_pressure;Samples;Min_cycle;Max_cycle;Signal;HPM_P1;HPM_P2
2021/08/02 00:01:02;;;;;;;5.50;4.18;;;;;;;14.46;100.00;100110.97;5029687;28;20057;-84
2021/08/02 00:03:39;;;;;;;6.00;4.10;;;;;;;14.47;100.00;100114.47;5001866;28;20084;-85
2021/08/02 00:06:08;;;;;;;6.68;4.75;;;;;;;14.42;100.00;100114.84;5020734;28;20175;-85
2021/08/02 00:08:58;;;;;;;5.05;4.55;;;;;;;14.36;100.00;100113.53;5017457;28;20052;-84
2021/08/02 00:11:32;;;;;;;5.72;5.03;;;;;;;14.56;100.00;100117.22;5038685;28;20183;-83
2021/08/02 00:14:03;;;;;;;6.07;5.10;;;;;;;14.41;100.00;100118.47;5006849;28;20100;-84
2021/08/02 00:16:31;;;;;;;6.70;4.97;;;;;;;14.54;100.00;100113.81;5015499;28;20107;-83
2021/08/02 00:19:02;;;;;;;6.28;4.50;;;;;;;14.47;100.00;100117.09;5019659;28;20064;-86
2021/08/02 00:21:29;;;;;;;4.82;4.40;;;;;;;14.51;100.00;100118.56;5009787;28;20043;-84
2021/08/02 00:23:57;;;;;;;5.43;4.88;;;;;;;14.44;100.00;100118.19;5000605;28;20088;-85
2021/08/02 00:26:24;;;;;;;5.75;4.45;;;;;;;14.41;100.00;100116.66;5030529;28;20188;-85
2021/08/02 00:28:52;;;;;;;5.25;4.72;;;;;;;14.42;100.00;100112.19;5032200;28;20043;-86
2021/08/02 00:31:20;;;;;;;5.00;4.45;;;;;;;14.41;100.00;100118.47;5019721;28;20088;-83
2021/08/02 00:33:47;;;;;;;6.70;4.88;;;;;;;14.43;100.00;100109.41;5026800;28;20185;-83
2021/08/02 00:36:21;;;;;;;4.78;4.22;;;;;;;14.53;100.00;100114.81;5063366;28;20040;-86
2021/08/02 00:38:59;;;;;;;6.30;4.30;;;;;;;14.63;100.00;100117.53;5036861;28;20080;-86
2021/08/02 00:42:09;;;;;;;5.07;4.57;;;;;;;14.61;100.00;100125.59;5023132;28;20045;-83
2021/08/02 00:44:48;;;;;;;4.97;4.45;;;;;;;14.73;100.00;100121.09;5046747;28;20052;-86
2021/08/02 00:47:17;;;;;;;5.53;4.55;;;;;;;14.70;100.00;100121.34;5048057;28;20068;-86
2021/08/02 00:49:51;;;;;;;7.55;4.45;;;;;;;14.82;100.00;100120.31;5052930;28;20548;-86
2021/08/02 00:52:20;;;;;;;7.07;4.57;;;;;;;14.79;100.00;100114.44;5033130;28;20045;-85
2021/08/02 00:54:48;;;;;;;6.13;4.30;;;;;;;14.79;100.00;100117.09;5004740;28;20542;-87
2021/08/02 00:57:18;;;;;;;6.40;4.72;;;;;;;14.86;100.00;100118.22;5041273;28;20119;-86
2021/08/02 00:59:48;;;;;;;5.35;3.63;;;;;;;14.83;100.00;100116.69;5034497;28;20057;-85
2021/08/02 01:02:15;;;;;;;5.40;4.00;;;;;;;14.87;100.00;100115.47;5010067;28;20053;-86
2021/08/02 01:04:44;;;;;;;6.20;4.13;;;;;;;14.84;100.00;100122.81;5029413;28;20045;-85
2021/08/02 01:07:12;;;;;;;5.43;3.90;;;;;;;14.82;100.00;100125.63;5021831;28;20036;-86
2021/08/02 01:09:42;;;;;;;4.57;4.00;;;;;;;14.79;100.00;100128.50;5005415;28;20045;-85
2021/08/02 01:12:10;;;;;;;6.45;4.38;;;;;;;14.92;100.00;100123.84;5040611;28;20103;-84
2021/08/02 01:14:38;;;;;;;4.97;3.47;;;;;;;15.05;100.00;100125.47;5019443;28;20037;-83
2021/08/02 01:17:08;;;;;;;4.65;4.00;;;;;;;15.00;100.00;100130.34;5021539;28;20068;-85
2021/08/02 01:19:36;;;;;;;4.55;4.10;;;;;;;15.05;100.00;100128.97;5037743;28;20109;-85
2021/08/02 01:22:04;;;;;;;5.85;4.18;;;;;;;15.04;100.00;100137.91;5040022;28;20488;-83
2021/08/02 01:24:35;;;;;;;5.00;4.10;;;;;;;15.04;100.00;100140.53;5037766;28;20080;-88
2021/08/02 01:27:05;;;;;;;5.20;4.70;;;;;;;15.07;100.00;100147.38;5049643;28;20041;-85
2021/08/02 01:30:09;;;;;;;5.50;3.70;;;;;;;14.94;100.00;100144.91;5045932;28;20499;-84
2021/08/02 01:32:36;;;;;;;4.80;4.07;;;;;;;14.85;100.00;100149.19;5027920;28;20051;-86
2021/08/02 01:35:04;;;;;;;5.07;4.68;;;;;;;14.86;100.00;100150.91;5050813;28;20041;-87
2021/08/02 01:37:32;;;;;;;5.05;4.10;;;;;;;15.06;100.00;100153.66;5027068;28;20305;-86
2021/08/02 01:39:59;;;;;;;5.75;4.35;;;;;;;15.15;100.00;100147.56;5016090;28;20049;-85
2021/08/02 01:42:27;;;;;;;4.22;3.83;;;;;;;15.06;100.00;100153.66;5045671;28;20578;-87
2021/08/02 01:44:54;;;;;;;5.38;4.10;;;;;;;15.12;100.00;100153.97;5015678;28;20116;-87
2021/08/02 01:47:58;;;;;;;5.28;3.80;;;;;;;15.09;100.00;100156.06;5044383;28;20385;-87
2021/08/02 01:50:32;;;;;;;5.35;3.47;;;;;;;15.25;100.00;100153.75;4985196;28;20466;-85
2021/08/02 01:53:21;;;;;;;4.75;3.92;;;;;;;15.21;100.00;100157.63;5004778;28;20045;-88
2021/08/02 01:56:10;;;;;;;8.07;4.55;;;;;;;15.15;100.00;100156.34;5030575;28;20057;-85
2021/08/02 01:58:43;;;;;;;6.35;3.95;;;;;;;15.12;100.00;100156.59;5000656;28;20172;-88
2021/08/02 02:01:11;;;;;;;8.38;4.20;;;;;;;15.02;100.00;100157.53;5033944;28;20045;-87
2021/08/02 02:03:39;;;;;;;5.05;3.35;;;;;;;15.15;100.00;100161.66;5017305;28;20109;-86
2021/08/02 02:06:09;;;;;;;4.90;3.13;;;;;;;15.29;100.00;100151.69;5035126;28;20068;-86
2021/08/02 02:08:42;;;;;;;4.15;3.55;;;;;;;15.18;100.00;100160.56;5000388;28;20143;-87
2021/08/02 02:11:10;;;;;;;5.45;3.25;;;;;;;15.14;100.00;100154.69;5035780;28;20049;-88
2021/08/02 02:13:40;;;;;;;7.18;3.20;;;;;;;15.23;100.00;100162.81;4998665;28;20053;-87
2021/08/02 02:16:08;;;;;;;7.63;3.03;;;;;;;15.17;100.00;100161.53;5016468;28;20148;-88
2021/08/02 02:18:39;;;;;;;3.92;2.70;;;;;;;15.09;100.00;100164.84;5021435;28;20064;-88
2021/08/02 02:21:07;;;;;;;3.67;2.58;;;;;;;15.06;100.00;100165.09;5038193;28;20087;-87
2021/08/02 02:23:34;;;;;;;5.32;3.10;;;;;;;15.08;100.00;100168.44;5047865;28;20053;-85
2021/08/02 02:26:01;;;;;;;4.90;2.60;;;;;;;15.12;100.00;100163.72;5038731;28;20049;-85
2021/08/02 02:28:29;;;;;;;3.97;2.63;;;;;;;15.06;98.29;100173.06;5050412;28;20045;-85
2021/08/02 02:30:56;;;;;;;4.55;2.47;;;;;;;15.05;98.31;100170.53;5048367;28;20065;-85
2021/08/02 02:33:24;;;;;;;5.25;2.58;;;;;;;15.10;97.25;100170.97;5049101;28;20052;-85
2021/08/02 02:35:52;;;;;;;3.42;2.20;;;;;;;15.03;97.48;100183.91;5036589;28;20098;-87
2021/08/02 02:38:19;;;;;;;5.13;2.45;;;;;;;15.03;98.12;100186.56;5031149;28;20126;-86
2021/08/02 02:40:47;;;;;;;8.77;3.08;;;;;;;15.00;97.92;100178.88;5050998;28;20136;-87
2021/08/02 02:43:18;;;;;;;5.18;2.83;;;;;;;15.04;97.49;100180.31;5027982;28;20143;-87
2021/08/02 02:45:46;;;;;;;5.82;2.58;;;;;;;15.10;97.97;100193.03;5032429;28;20412;-86
2021/08/02 02:48:15;;;;;;;4.50;2.42;;;;;;;15.10;97.26;100184.25;5046121;28;20045;-88
2021/08/02 02:50:45;;;;;;;3.17;2.22;;;;;;;15.08;97.63;100191.47;5031758;28;20052;-85
2021/08/02 02:53:12;;;;;;;3.10;2.40;;;;;;;15.01;97.33;100190.31;5004396;28;20879;-86
2021/08/02 02:55:41;;;;;;;4.60;2.35;;;;;;;15.15;96.87;100193.47;5030176;28;20075;-84
2021/08/02 02:58:08;;;;;;;5.95;2.38;;;;;;;15.15;96.53;100203.25;5041515;28;20068;-86
2021/08/02 03:00:36;;;;;;;6.65;2.30;;;;;;;15.10;96.08;100198.34;5046688;28;20049;-85
2021/08/02 03:03:04;;;;;;;4.53;2.17;;;;;;;15.07;96.95;100201.22;5013228;28;20125;-86
2021/08/02 03:05:33;;;;;;;4.38;2.70;;;;;;;15.05;97.19;100203.19;5034287;28;20136;-86
2021/08/02 03:08:01;;;;;;;4.03;2.60;;;;;;;15.06;98.28;100207.50;5045204;28;20575;-87
2021/08/02 03:10:28;;;;;;;4.10;2.42;;;;;;;15.01;98.79;100207.06;5030452;28;20085;-87
2021/08/02 03:12:55;;;;;;;4.35;2.50;;;;;;;14.88;100.00;100209.06;5028918;28;20113;-86
2021/08/02 03:15:23;;;;;;;5.93;3.00;;;;;;;14.79;100.00;100207.19;5045776;28;20053;-88
2021/08/02 03:17:50;;;;;;;4.45;2.95;;;;;;;14.75;100.00;100211.88;5032064;28;20439;-87
2021/08/02 03:20:17;;;;;;;7.40;3.25;;;;;;;14.64;100.00;100225.19;5037421;28;20049;-86
2021/08/02 03:22:47;;;;;;;5.93;3.20;;;;;;;14.75;100.00;100209.22;5043609;28;20132;-86
2021/08/02 03:25:29;;;;;;;6.97;3.45;;;;;;;14.78;100.00;100222.25;5041187;28;20049;-86
2021/08/02 03:28:22;;;;;;;5.50;3.70;;;;;;;14.75;100.00;100217.19;5026690;28;20140;-86
2021/08/02 03:30:50;;;;;;;7.55;3.42;;;;;;;14.77;100.00;100230.28;5041860;28;20049;-85
2021/08/02 03:33:24;;;;;;;5.93;3.55;;;;;;;14.76;100.00;100229.47;5036439;28;20128;-85
2021/08/02 03:35:56;;;;;;;4.75;3.72;;;;;;;14.63;100.00;100237.59;5041390;28;20432;-86
2021/08/02 03:38:25;;;;;;;6.90;3.83;;;;;;;14.66;100.00;100239.97;5055744;28;20081;-86
2021/08/02 03:40:53;;;;;;;6.93;4.10;;;;;;;14.46;100.00;100242.56;5027767;28;20102;-84
2021/08/02 03:43:21;;;;;;;7.07;4.20;;;;;;;14.50;100.00;100238.69;5026307;28;20065;-85
2021/08/02 03:45:49;;;;;;;10.60;3.67;;;;;;;14.40;100.00;100238.56;5042565;28;20045;-85
2021/08/02 03:48:19;;;;;;;6.43;3.50;;;;;;;14.50;100.00;100233.41;5025190;28;20089;-87
2021/08/02 03:50:47;;;;;;;5.10;3.17;;;;;;;14.46;100.00;100238.09;5042186;28;20053;-86
2021/08/02 03:53:14;;;;;;;7.53;3.30;;;;;;;14.34;100.00;100242.56;5041552;28;20044;-86
2021/08/02 03:55:43;;;;;;;6.13;3.50;;;;;;;14.42;100.00;100242.78;5055630;28;20053;-85
2021/08/02 03:58:10;;;;;;;5.63;2.95;;;;;;;14.51;100.00;100249.19;5038144;28;20120;-87
2021/08/02 04:00:37;;;;;;;6.85;3.42;;;;;;;14.58;100.00;100249.50;5040875;28;20124;-87
2021/08/02 04:03:05;;;;;;;3.72;3.10;;;;;;;14.52;100.00;100258.81;5040108;28;20061;-85
2021/08/02 04:05:32;;;;;;;5.88;3.35;;;;;;;14.49;100.00;100267.00;5039878;28;20112;-87
2021/08/02 04:07:59;;;;;;;3.83;3.00;;;;;;;14.53;100.00;100268.44;5044138;28;20052;-86
2021/08/02 04:10:27;;;;;;;6.85;3.03;;;;;;;14.55;100.00;100274.47;5011240;28;20499;-87
2021/08/02 04:12:55;;;;;;;7.32;3.53;;;;;;;14.71;100.00;100278.50;5036872;28;20436;-85
2021/08/02 04:15:22;;;;;;;5.47;3.13;;;;;;;14.77;100.00;100272.69;5051923;28;20137;-86
2021/08/02 04:17:49;;;;;;;6.20;2.88;;;;;;;14.78;100.00;100277.03;5046314;28;20112;-86
2021/08/02 04:20:18;;;;;;;5.63;2.47;;;;;;;14.86;100.00;100275.44;4995340;28;20062;-88
2021/08/02 04:22:47;;;;;;;3.55;2.55;;;;;;;14.91;100.00;100280.38;5026946;28;20052;-85
2021/08/02 04:25:15;;;;;;;3.22;2.40;;;;;;;14.90;100.00;100276.88;5031757;28;20077;-86
2021/08/02 04:27:42;;;;;;;7.78;3.17;;;;;;;14.94;100.00;100285.41;5011621;28;20122;-85
2021/08/02 04:30:10;;;;;;;7.13;2.88;;;;;;;14.78;100.00;100285.84;5029877;28;20127;-87
2021/08/02 04:32:42;;;;;;;7.00;2.40;;;;;;;14.71;100.00;100289.94;5028384;28;20526;-86
2021/08/02 04:35:10;;;;;;;7.40;3.10;;;;;;;14.67;100.00;100285.84;5014216;28;20139;-86
2021/08/02 04:37:37;;;;;;;9.18;3.30;;;;;;;14.65;100.00;100280.69;4992209;28;20176;-86
2021/08/02 04:40:05;;;;;;;7.10;2.90;;;;;;;14.74;100.00;100289.69;5013331;28;20047;-86
2021/08/02 04:42:34;;;;;;;4.88;2.60;;;;;;;14.83;100.00;100293.41;5049091;28;20053;-86
2021/08/02 04:45:04;;;;;;;6.28;2.90;;;;;;;14.85;100.00;100300.25;5033388;28;20048;-86
2021/08/02 04:47:32;;;;;;;8.88;2.80;;;;;;;14.90;100.00;100292.78;5012273;28;20053;-85
2021/08/02 04:49:59;;;;;;;5.07;2.35;;;;;;;15.01;100.00;100302.50;5030389;28;20122;-87
2021/08/02 04:52:26;;;;;;;9.23;2.80;;;;;;;15.20;98.98;100300.00;4993312;28;20049;-87
2021/08/02 04:54:53;;;;;;;4.32;2.33;;;;;;;15.44;97.63;100306.84;5025246;28;20049;-86
2021/08/02 04:57:20;;;;;;;5.82;2.45;;;;;;;15.52;97.30;100304.41;5005221;28;20140;-86
2021/08/02 04:59:47;;;;;;;4.05;2.25;;;;;;;15.79;96.54;100306.53;5028428;28;20053;-86
2021/08/02 05:02:15;;;;;;;5.80;2.67;;;;;;;15.81;94.25;100303.78;5044690;28;20099;-89
2021/08/02 05:04:42;;;;;;;5.53;2.65;;;;;;;15.87;94.96;100303.25;5005370;28;20055;-86
2021/08/02 05:07:09;;;;;;;6.32;3.13;;;;;;;15.84;94.80;100306.16;5043480;28;20053;-87
2021/08/02 05:09:36;;;;;;;11.88;2.67;;;;;;;16.02;95.41;100307.22;5033606;28;20152;-86
2021/08/02 05:12:04;;;;;;;4.75;2.88;;;;;;;17.59;87.12;100304.63;5014786;28;20065;-87
2021/08/02 05:14:34;;;;;;;4.85;2.00;;;;;;;19.39;77.70;100300.44;5032116;28;20068;-86
2021/08/02 05:17:02;;;;;;;6.30;2.00;;;;;;;21.15;67.38;100305.22;4999800;28;20227;-87
2021/08/02 05:19:29;;;;;;;5.28;1.70;;;;;;;22.65;60.13;100301.88;5017013;28;20044;-86
2021/08/02 05:21:56;;;;;;;4.38;1.88;;;;;;;23.65;55.88;100304.53;5046120;28;20064;-86
2021/08/02 05:24:23;;;;;;;5.45;2.20;;;;;;;24.58;53.02;100295.03;5029240;28;20052;-86
2021/08/02 05:26:51;;;;;;;4.15;1.50;;;;;;;24.67;52.31;100299.28;5022364;28;20072;-86
2021/08/02 05:29:18;;;;;;;3.72;1.80;;;;;;;25.55;49.84;100299.94;5033829;28;20071;-87
2021/08/02 05:31:45;;;;;;;4.32;2.00;;;;;;;25.41;49.85;100299.00;5053570;28;20147;-86
2021/08/02 05:34:13;;;;;;;6.88;1.77;;;;;;;24.16;51.07;100308.16;5021241;28;20076;-86
2021/08/02 05:36:41;;;;;;;8.98;2.97;;;;;;;24.34;53.04;100309.63;5048388;28;20096;-86
2021/08/02 05:39:09;;;;;;;6.20;2.30;;;;;;;24.61;50.64;100311.66;5030911;28;20068;-86
2021/08/02 05:41:36;;;;;;;3.50;2.10;;;;;;;22.90;54.37;100307.97;5045197;28;20048;-87
2021/08/02 05:44:04;;;;;;;8.52;2.10;;;;;;;22.60;56.58;100315.81;5010978;28;20038;-84
2021/08/02 05:46:32;;;;;;;7.15;2.58;;;;;;;20.46;62.73;100323.28;5013291;28;20136;-84
2021/08/02 05:48:59;;;;;;;7.38;2.58;;;;;;;19.41;68.44;100316.31;5029447;28;20075;-84
2021/08/02 05:51:26;;;;;;;3.53;2.05;;;;;;;19.34;70.51;100320.56;5013912;28;20057;-83
2021/08/02 05:53:53;;;;;;;5.53;2.33;;;;;;;19.31;71.11;100326.22;5047790;28;20061;-84
2021/08/02 05:56:20;;;;;;;5.72;2.40;;;;;;;20.59;67.22;100320.19;5010728;28;20420;-84
2021/08/02 05:58:48;;;;;;;7.63;2.58;;;;;;;21.48;62.63;100322.16;5046840;28;20387;-84
2021/08/02 06:01:16;;;;;;;7.22;2.20;;;;;;;20.87;64.13;100328.78;5026685;28;20063;-83
2021/08/02 06:03:43;;;;;;;6.38;2.67;;;;;;;19.78;67.75;100331.28;5010974;28;20487;-84
2021/08/02 06:06:11;;;;;;;5.07;1.80;;;;;;;20.57;66.82;100332.88;5020692;28;20244;-85
2021/08/02 06:08:39;;;;;;;6.95;2.08;;;;;;;21.64;61.89;100321.31;5014356;28;20049;-84
2021/08/02 06:11:07;;;;;;;5.22;1.98;;;;;;;21.96;61.46;100326.59;5017513;28;20108;-83
2021/08/02 06:13:34;;;;;;;6.82;2.53;;;;;;;22.85;57.41;100321.06;5030161;28;20108;-84
2021/08/02 06:16:02;;;;;;;5.85;1.80;;;;;;;21.90;58.44;100329.13;5016611;28;20079;-83
2021/08/02 06:18:29;;;;;;;3.33;1.55;;;;;;;20.93;62.66;100334.28;5027172;28;20065;-82
2021/08/02 06:20:56;;;;;;;6.50;1.90;;;;;;;21.46;59.28;100326.84;5022372;28;20057;-84
2021/08/02 06:23:23;;;;;;;7.38;1.92;;;;;;;20.23;63.36;100328.38;5025282;28;20050;-83
2021/08/02 06:25:51;;;;;;;4.35;2.08;;;;;;;21.06;61.77;100332.97;5051081;28;20067;-83
2021/08/02 06:28:18;;;;;;;3.22;1.65;;;;;;;24.59;51.93;100327.16;5011057;28;20057;-84
2021/08/02 06:30:45;;;;;;;4.88;1.83;;;;;;;25.74;48.16;100324.34;5031675;28;20145;-82
2021/08/02 06:33:12;;;;;;;5.97;2.15;;;;;;;25.21;48.24;100326.59;5027840;28;20067;-85
2021/08/02 06:35:40;;;;;;;3.53;2.05;;;;;;;23.24;52.51;100329.88;5026776;28;20148;-84
2021/08/02 06:38:07;;;;;;;7.00;2.25;;;;;;;20.00;61.79;100341.44;5043897;28;20052;-84
2021/08/02 06:40:34;;;;;;;16.52;3.97;;;;;;;19.66;65.04;100331.53;5025453;28;20554;-82
2021/08/02 06:43:01;;;;;;;8.10;2.08;;;;;;;21.35;59.67;100330.69;5023556;28;20071;-84
2021/08/02 06:45:28;;;;;;;6.40;1.88;;;;;;;22.93;54.22;100340.66;5000719;28;20080;-85
2021/08/02 06:47:57;;;;;;;13.75;3.28;;;;;;;22.22;56.45;100342.47;5045930;28;20132;-83
2021/08/02 06:50:25;;;;;;;5.68;2.00;;;;;;;22.11;56.91;100337.47;5029113;28;20236;-82
2021/08/02 06:52:52;;;;;;;7.35;1.77;;;;;;;23.55;52.31;100337.00;5008168;28;20144;-83
2021/08/02 06:55:19;;;;;;;7.10;1.98;;;;;;;24.84;48.33;100338.41;5047574;28;20063;-85
2021/08/02 06:57:46;;;;;;;7.63;1.77;;;;;;;23.85;50.05;100331.69;4991926;28;20056;-86
2021/08/02 07:00:14;;;;;;;5.88;1.90;;;;;;;23.23;51.48;100344.28;5048967;28;20064;-84
2021/08/02 07:02:41;;;;;;;6.22;2.33;;;;;;;23.43;50.87;100346.50;5041956;28;20048;-82
2021/08/02 07:05:10;;;;;;;4.13;1.70;;;;;;;24.56;48.27;100343.69;5030404;28;20044;-83
2021/08/02 07:07:37;;;;;;;9.27;2.30;;;;;;;25.33;45.55;100339.56;5028484;28;20060;-82
2021/08/02 07:10:05;;;;;;;3.28;1.40;;;;;;;24.12;46.94;100341.81;5051474;28;20072;-84
2021/08/02 07:12:33;;;;;;;6.20;2.35;;;;;;;25.69;42.97;100340.28;5001904;28;20057;-82
2021/08/02 07:15:01;;;;;;;2.10;0.88;;;;;;;26.40;40.49;100339.28;5004691;28;20227;-82
2021/08/02 07:17:28;;;;;;;5.22;1.65;;;;;;;28.39;37.01;100342.22;5028208;28;20180;-83
2021/08/02 07:19:55;;;;;;;3.25;1.00;;;;;;;29.31;34.42;100342.78;5014346;28;20479;-84
2021/08/02 07:22:22;;;;;;;6.82;1.60;;;;;;;30.37;32.56;100341.81;5007489;28;20057;-85
2021/08/02 07:24:49;;;;;;;7.32;1.00;;;;;;;30.92;30.32;100345.28;4998625;28;20072;-82
2021/08/02 07:27:17;;;;;;;4.43;1.08;;;;;;;27.22;36.15;100354.56;5028342;28;20063;-82
2021/08/02 07:29:48;;;;;;;5.63;1.60;;;;;;;27.64;36.21;100353.31;5029818;28;20510;-82
2021/08/02 07:32:15;;;;;;;3.65;1.52;;;;;;;29.81;33.86;100350.94;5011033;28;20124;-82
2021/08/02 07:34:42;;;;;;;4.03;1.13;;;;;;;30.77;31.13;100345.72;5019877;28;20077;-81
2021/08/02 07:37:10;;;;;;;6.72;3.10;;;;;;;31.96;29.51;100348.47;5025882;28;20045;-83
2021/08/02 07:39:37;;;;;;;6.57;1.83;;;;;;;30.91;30.86;100346.38;5018748;28;20560;-82
2021/08/02 07:42:05;;;;;;;6.18;1.85;;;;;;;26.26;38.85;100355.41;5025872;28;20446;-83
2021/08/02 07:44:32;;;;;;;31.55;7.07;;;;;;;24.70;42.78;100356.28;5026535;28;20060;-84
2021/08/02 07:47:00;;;;;;;6.53;1.50;;;;;;;26.62;38.61;100356.25;5017104;28;20170;-83
2021/08/02 07:49:29;;;;;;;4.25;1.63;;;;;;;25.40;40.48;100359.31;5030583;28;20053;-81
2021/08/02 07:51:56;;;;;;;3.58;1.45;;;;;;;24.49;42.23;100370.50;5041500;28;20105;-83
2021/08/02 07:54:23;;;;;;;4.88;1.35;;;;;;;24.00;43.64;100356.72;5005051;28;20073;-82
2021/08/02 07:56:51;;;;;;;7.15;1.88;;;;;;;23.38;45.22;100371.22;5054710;28;20068;-82
2021/08/02 07:59:19;;;;;;;4.93;1.67;;;;;;;21.77;49.63;100366.34;5032966;28;20064;-83
2021/08/02 08:01:46;;;;;;;4.88;1.33;;;;;;;25.12;41.13;100368.16;5049110;28;20173;-81
2021/08/02 08:04:14;;;;;;;10.27;1.83;;;;;;;27.66;36.03;100362.06;5049799;28;20063;-82
2021/08/02 08:06:45;;;;;;;9.50;1.90;;;;;;;28.54;34.15;100363.63;5016533;28;20045;-81
2021/08/02 08:09:13;;;;;;;3.80;1.42;;;;;;;30.70;30.40;100363.97;5023432;28;20114;-82
2021/08/02 08:11:40;;;;;;;6.25;1.45;;;;;;;31.72;29.31;100357.69;5031552;28;20195;-81
2021/08/02 08:14:14;;;;;;;3.08;1.30;;;;;;;29.00;31.71;100364.25;5042054;28;20048;-81
2021/08/02 08:16:42;;;;;;;5.50;1.30;;;;;;;31.32;28.79;100354.78;5014156;28;20109;-82
2021/08/02 08:19:09;;;;;;;6.10;1.13;;;;;;;31.53;28.52;100346.06;4997732;28;20056;-84
2021/08/02 08:21:37;;;;;;;2.83;1.30;;;;;;;30.91;28.78;100353.69;4997529;28;20079;-81
2021/08/02 08:24:06;;;;;;;5.13;1.35;;;;;;;32.00;27.84;100355.09;5049385;28;20403;-80
2021/08/02 08:26:36;;;;;;;4.32;1.45;;;;;;;32.89;26.28;100352.06;5008823;28;20077;-83
2021/08/02 08:29:05;;;;;;;3.45;1.20;;;;;;;31.07;28.37;100352.19;5025173;28;20045;-83
2021/08/02 08:31:33;;;;;;;7.63;1.85;;;;;;;30.58;28.99;100357.66;5015427;28;20065;-83
2021/08/02 08:34:01;;;;;;;4.90;1.35;;;;;;;25.27;36.41;100369.97;4990559;28;20060;-82
2021/08/02 08:36:28;;;;;;;5.18;1.38;;;;;;;23.54;39.46;100366.72;5003222;28;20384;-81
2021/08/02 08:38:55;;;;;;;5.57;1.10;;;;;;;25.25;37.52;100380.94;4993084;28;20046;-85
2021/08/02 08:41:22;;;;;;;3.20;1.05;;;;;;;24.84;38.55;100376.09;5009927;28;20053;-83
2021/08/02 08:43:53;;;;;;;3.70;0.98;;;;;;;23.63;39.93;100365.63;5024037;28;20057;-81
2021/08/02 08:46:22;;;;;;;3.03;1.10;;;;;;;23.96;39.73;100367.03;5016673;28;20135;-81
2021/08/02 08:48:51;;;;;;;7.45;1.65;;;;;;;24.07;39.85;100371.13;5015765;28;20115;-81
2021/08/02 08:51:21;;;;;;;5.78;1.50;;;;;;;24.03;39.94;100371.69;5009633;28;20132;-85
2021/08/02 08:53:48;;;;;;;5.57;1.67;;;;;;;24.19;40.59;100368.81;5049786;28;20051;-81
2021/08/02 08:56:16;;;;;;;3.55;1.00;;;;;;;24.53;39.23;100372.81;5014422;28;20581;-81
2021/08/02 08:58:44;;;;;;;2.22;1.20;;;;;;;24.16;40.68;100369.19;5016575;28;20049;-81
2021/08/02 09:01:12;;;;;;;5.15;1.00;;;;;;;24.04;40.36;100366.09;5019582;28;20131;-84
2021/08/02 09:03:54;;;;;;;2.65;1.20;;;;;;;23.69;41.13;100371.16;5021097;28;20132;-81
2021/08/02 09:06:22;;;;;;;2.72;1.20;;;;;;;22.76;42.09;100368.56;5009597;28;20041;-86
2021/08/02 09:08:49;;;;;;;5.78;1.50;;;;;;;22.26;43.02;100377.00;5012663;28;20106;-82
2021/08/02 09:11:21;;;;;;;4.88;1.92;;;;;;;21.72;44.08;100369.53;5012673;28;20072;-80
2021/08/02 09:13:48;;;;;;;4.88;1.20;;;;;;;21.66;45.61;100371.03;5028923;28;20053;-81
2021/08/02 09:16:21;;;;;;;5.03;1.50;;;;;;;21.93;45.20;100363.63;5028538;28;20051;-80
2021/08/02 09:18:57;;;;;;;9.23;3.72;;;;;;;21.56;45.97;100364.16;5029196;28;20076;-80
2021/08/02 09:21:25;;;;;;;4.40;1.67;;;;;;;21.57;46.40;100380.09;5032577;28;20100;-81
2021/08/02 09:23:55;;;;;;;6.13;1.27;;;;;;;21.51;47.30;100375.38;5029222;28;20061;-83
2021/08/02 09:26:32;;;;;;;13.82;2.25;;;;;;;22.11;46.56;100382.19;5027334;28;20053;-84
2021/08/02 09:29:00;;;;;;;7.50;2.05;;;;;;;22.33;46.32;100381.47;4988532;28;20073;-82
2021/08/02 09:31:36;;;;;;;5.15;1.60;;;;;;;22.03;45.55;100372.31;5031137;28;20067;-85
2021/08/02 09:34:05;;;;;;;2.25;1.27;;;;;;;22.33;44.81;100377.97;5006636;28;20061;-80
2021/08/02 09:36:39;;;;;;;5.88;1.38;;;;;;;22.58;43.45;100376.88;4996972;28;20044;-82
2021/08/02 09:39:08;;;;;;;6.30;1.42;;;;;;;22.92;43.13;100381.94;5025408;28;20049;-81
2021/08/02 09:41:35;;;;;;;6.60;1.30;;;;;;;21.89;44.74;100379.22;5015754;28;20137;-84
2021/08/02 09:44:04;;;;;;;9.20;3.53;;;;;;;21.23;47.23;100390.91;5011374;28;20085;-82
2021/08/02 09:46:32;;;;;;;3.25;1.15;;;;;;;21.90;45.76;100380.06;5003809;28;20053;-82
2021/08/02 09:49:04;;;;;;;1.88;0.90;;;;;;;22.01;44.78;100382.38;5010575;28;20207;-82
2021/08/02 09:51:44;;;;;;;3.00;1.13;;;;;;;21.44;46.08;100391.28;5023885;28;20196;-82
2021/08/02 09:54:22;;;;;;;7.38;1.30;;;;;;;21.36;46.77;100388.59;5030204;28;20045;-83
2021/08/02 09:56:51;;;;;;;3.33;1.25;;;;;;;21.36;45.47;100387.78;5029134;28;20075;-80
2021/08/02 09:59:19;;;;;;;7.15;1.50;;;;;;;20.97;47.12;100391.00;5014903;28;20348;-80
2021/08/02 10:01:51;;;;;;;4.75;1.20;;;;;;;20.70;49.13;100392.09;5020718;28;20190;-80
2021/08/02 10:04:18;;;;;;;5.10;1.10;;;;;;;20.70;48.04;100389.41;5032209;28;20120;-80
2021/08/02 10:06:47;;;;;;;3.30;1.30;;;;;;;21.35;47.09;100394.13;5026444;28;20049;-79
2021/08/02 10:09:14;;;;;;;4.15;1.40;;;;;;;21.17;45.91;100400.44;5016829;28;20073;-78
2021/08/02 10:11:42;;;;;;;9.90;1.35;;;;;;;21.71;45.10;100384.75;5055165;28;20084;-80
2021/08/02 10:14:12;;;;;;;2.67;1.10;;;;;;;21.91;44.87;100381.72;5018553;28;20099;-81
2021/08/02 10:16:44;;;;;;;14.07;2.53;;;;;;;21.68;45.17;100390.44;4996433;28;20128;-80
2021/08/02 10:19:13;;;;;;;5.90;1.65;;;;;;;22.17;43.89;100385.06;5010159;28;20059;-81
2021/08/02 10:21:43;;;;;;;5.40;1.45;;;;;;;22.04;43.46;100390.06;5013837;28;20123;-85
2021/08/02 10:24:12;;;;;;;4.38;1.23;;;;;;;22.18;43.27;100392.09;5031775;28;20053;-80
2021/08/02 10:26:40;;;;;;;4.72;1.02;;;;;;;22.20;43.18;100387.41;5048843;28;20068;-84
2021/08/02 10:29:08;;;;;;;4.70;1.20;;;;;;;22.05;43.60;100394.44;5031078;28;20091;-80
2021/08/02 10:31:48;;;;;;;6.50;1.67;;;;;;;22.15;43.59;100395.09;5010761;28;20434;-81
2021/08/02 10:34:23;;;;;;;4.15;1.73;;;;;;;22.49;42.22;100397.53;5011116;28;20072;-82
2021/08/02 10:37:01;;;;;;;4.07;1.20;;;;;;;22.67;41.65;100391.91;4996168;28;20057;-83
2021/08/02 10:39:30;;;;;;;3.33;1.20;;;;;;;23.41;41.14;100392.34;5049454;28;20056;-82
2021/08/02 10:42:16;;;;;;;5.57;1.30;;;;;;;23.49;41.07;100386.06;5027932;28;20145;-82
2021/08/02 10:44:58;;;;;;;4.95;1.20;;;;;;;23.24;41.29;100394.31;5027906;28;20517;-81
2021/08/02 10:47:39;;;;;;;4.20;1.00;;;;;;;22.78;42.17;100397.91;5030589;28;20135;-84
2021/08/02 10:50:11;;;;;;;4.10;1.15;;;;;;;22.13;42.97;100402.50;5021162;28;20038;-81
2021/08/02 10:52:38;;;;;;;5.20;1.50;;;;;;;21.37;43.59;100411.69;5047452;28;20053;-80
2021/08/02 10:55:15;;;;;;;3.05;1.27;;;;;;;20.62;45.72;100408.94;5028792;28;20060;-79
2021/08/02 10:57:43;;;;;;;3.22;1.27;;;;;;;20.61;46.08;100414.44;5007574;28;20175;-86
2021/08/02 11:00:21;;;;;;;6.68;1.38;;;;;;;19.94;47.94;100411.53;5027075;28;20088;-79
2021/08/02 11:02:55;;;;;;;3.58;1.50;;;;;;;19.95;49.42;100413.22;5022998;28;20106;-81
2021/08/02 11:05:28;;;;;;;5.75;1.20;;;;;;;19.96;49.27;100407.72;4998698;28;20083;-81
2021/08/02 11:08:02;;;;;;;3.10;1.50;;;;;;;20.20;49.04;100420.38;5004239;28;20103;-82
2021/08/02 11:10:29;;;;;;;5.03;1.17;;;;;;;20.71;47.11;100416.03;5019344;28;20071;-79
2021/08/02 11:12:57;;;;;;;5.53;1.60;;;;;;;21.26;45.60;100406.63;5013798;28;20044;-83
2021/08/02 11:15:25;;;;;;;5.03;1.63;;;;;;;21.45;44.63;100411.72;5014685;28;20136;-82
2021/08/02 11:17:53;;;;;;;5.43;1.63;;;;;;;21.74;43.78;100407.69;5003518;28;20668;-79
2021/08/02 11:20:24;;;;;;;5.75;1.20;;;;;;;22.03;43.56;100401.81;5033084;28;20543;-82
2021/08/02 11:22:52;;;;;;;6.10;1.50;;;;;;;22.44;43.46;100399.91;5033371;28;20045;-81
2021/08/02 11:25:24;;;;;;;5.38;1.50;;;;;;;23.20;41.07;100403.75;5034616;28;20517;-80
2021/08/02 11:27:53;;;;;;;4.47;1.25;;;;;;;23.31;39.59;100391.75;5011763;28;20054;-81
2021/08/02 11:30:21;;;;;;;4.07;1.20;;;;;;;22.99;40.30;100399.00;5004178;28;20057;-82
2021/08/02 11:32:50;;;;;;;3.05;1.35;;;;;;;22.84;40.49;100391.84;5014963;28;20136;-79